首页
METAR-TAF:

METAR-TAF

机场 :

Mason City Municipal Airport

麦逊城, 艾奥瓦州, 美国

纬度: 43-09-28N, 经度: 093-19-53W, 海拔: 370米

当前天气观测

该预报发布于1小时和4分钟前的07:53 UTC
风速4节,风向
温度 13°C
湿度 94%
气压 1016 hPa
能見度: 16.1公里
天空无云

METAR: KMCW 190753Z AUTO 36004KT 10SM CLR 13/12 A3000 RMK AO2 SLP151 T01280117

时间: 03:57 (08:57 UTC)

预报

该预报发布于3小时和37分钟前的05:20 UTC
预报有效从19日的 06点(UTC)到 20日的 06点(UTC)
风速3节,风向多变
能見度: 10公里
少量云层高于25000英尺
从 19日的 1600点(UTC)
风速6节,风向南转南东
能見度: 10公里
少量云层高于4000英尺

TAF: KMCW 190520Z 1906/2006 VRB03KT P6SM FEW250 FM191600 15006KT P6SM FEW040

超过4000个机场的气象观测和天气预报(METAR&TAF报告)。

可查询的气象台以黄色和红色小点在地图上表示。

将鼠标移到小点上方,可查看气象台名称。

然后点击查看天气观测和预报。

如需切换地图:点击带黑十字的绿色按钮放大地图;点击带横线的绿色按钮缩小地图;或者点击绿色箭头查看邻近地区的地图。


METAR-TAF: